Sandy Bay, Honduras

5:15 PM CST on January 28, 2015 (GMT -0600)
APRSWXNET Oak Ridge HN | Change Station
CLOSE
Current Station
Personal Weather Station
Location: Roatan,
Elevation: 98 ft
Nearby Weather Stations

Elev 98 ft 16.40 °N, 86.34 °W | Updated 48 minutes ago

Rain
Rain
72 °F
Feels Like 72 °F
N
1
Wind Variable Wind from North
Gusts 3.0 mph

Today
High -- | Low -- °F
--% Chance of Precip.
Yesterday
High -- | Low -- °F
Precip. -- in
6:19 AM 5:42 PM
Waxing Gibbous, 68% visible
Pressure 30.04 in
Visibility 6.2 miles
Clouds Mostly Cloudy 2000 ft
Dew Point 69 °F
Humidity 90%
Rainfall 0.06 in
Snow Depth Not available.
UV 0 out of 12
Pollen Not available.
Air Quality Not available.
Flu Activity Not available.
METAR MHRO 282300Z 34008KT 9999 BKN020 25/19 Q1017 A3003 NOSIG

More Conditions Fewer Conditions

Pressure 30.04 in
Visibility 6.2 miles
Clouds Mostly Cloudy 2000 ft
Dew Point 69 °F
Humidity 90%
Rainfall 0.06 in
Snow Depth Not available.
UV 0 out of 12
Pollen Not available.
Air Quality Not available.
Flu Activity Not available.
METAR MHRO 282300Z 34008KT 9999 BKN020 25/19 Q1017 A3003 NOSIG

More Conditions Fewer Conditions

10-Day Weather Forecast

Almanac

Astronomy

Jan. 28, 2015 Rise Set
Actual Time
Civil Twilight
Nautical Twilight
Astronomical Twilight
Moon
Length of Visible Light
Length of Day
Tomorrow will be .
, % of the Moon is Illuminated

Today's Extremes

Country Highs Country Lows

Community

WunderPhotos

Upload Photos

1,791,292 photos uploaded!

WunderBlogs® & News

Nearby

Air Quality

  Air Quality AQ Index Pollutant
Not available.

Snow Depth

Station Depth Elevation

Earthquake Activity

City Distance Mag. Time & Date
Minimum magnitude displayed is 2.5.

Coastal Water Temperatures

Place Temperature

Nearby Weather Stations